Time;durP1;ratioP1;P1;durP2;ratioP2;P2;SDS_P1;SDS_P2;PMS_P1;PMS_P2;Temp;Humidity;BMP_temperature;BMP_pressure;BME280_temperature;BME280_humidity;BME280_pressure;Samples;Min_cycle;Max_cycle;Signal;HPM_P1;HPM_P2
2022/06/20 00:00:35;;;;;;;9.15;6.28;;;;;;;;;;5087254;28;20044;-71
2022/06/20 00:03:08;;;;;;;11.65;7.32;;;;;;;;;;5087335;28;20052;-70
2022/06/20 00:05:39;;;;;;;8.75;6.38;;;;;;;;;;5087287;28;20047;-70
2022/06/20 00:08:11;;;;;;;7.25;5.43;;;;;;;;;;5086987;28;20419;-70
2022/06/20 00:10:44;;;;;;;8.80;5.78;;;;;;;;;;5087248;28;20048;-71
2022/06/20 00:13:40;;;;;;;7.53;5.57;;;;;;;;;;5087512;28;20106;-71
2022/06/20 00:16:15;;;;;;;14.82;5.70;;;;;;;;;;5085703;28;20067;-71
2022/06/20 00:18:46;;;;;;;19.85;7.53;;;;;;;;;;5088083;28;20051;-71
2022/06/20 00:21:20;;;;;;;8.98;6.65;;;;;;;;;;5087510;28;20049;-72
2022/06/20 00:23:51;;;;;;;9.68;6.22;;;;;;;;;;5086861;28;20040;-76
2022/06/20 00:26:22;;;;;;;8.05;5.47;;;;;;;;;;5088362;28;20043;-72
2022/06/20 00:28:51;;;;;;;5.68;4.93;;;;;;;;;;5086973;28;20044;-72
2022/06/20 00:31:23;;;;;;;5.07;4.07;;;;;;;;;;5086789;28;20040;-72
2022/06/20 00:33:53;;;;;;;5.53;3.78;;;;;;;;;;5086677;28;20051;-72
2022/06/20 00:36:23;;;;;;;4.90;3.67;;;;;;;;;;5086840;28;20059;-72
2022/06/20 00:38:55;;;;;;;5.65;3.85;;;;;;;;;;5086311;28;20044;-72
2022/06/20 00:41:30;;;;;;;5.90;3.67;;;;;;;;;;5069374;28;20055;-72
2022/06/20 00:44:02;;;;;;;5.40;4.15;;;;;;;;;;5087074;28;20036;-72
2022/06/20 00:46:37;;;;;;;8.35;4.63;;;;;;;;;;5087510;28;20052;-72
2022/06/20 00:49:20;;;;;;;8.38;3.80;;;;;;;;;;5086954;28;20048;-72
2022/06/20 00:51:59;;;;;;;5.28;3.47;;;;;;;;;;5086731;28;20075;-72
2022/06/20 00:54:50;;;;;;;8.65;4.72;;;;;;;;;;5085086;28;20044;-72
2022/06/20 00:57:27;;;;;;;11.80;5.38;;;;;;;;;;5085459;28;20438;-73
2022/06/20 01:00:22;;;;;;;11.27;6.35;;;;;;;;;;5083887;28;20048;-72
2022/06/20 01:02:58;;;;;;;7.32;5.30;;;;;;;;;;5083940;28;20506;-72
2022/06/20 01:05:32;;;;;;;9.20;4.82;;;;;;;;;;5082618;28;20078;-72
2022/06/20 01:08:06;;;;;;;8.35;5.55;;;;;;;;;;5083535;28;20059;-72
2022/06/20 01:10:54;;;;;;;6.65;4.95;;;;;;;;;;5084622;28;20471;-72
2022/06/20 01:13:27;;;;;;;5.68;4.40;;;;;;;;;;5085170;28;20083;-72
2022/06/20 01:16:26;;;;;;;8.25;5.22;;;;;;;;;;5086790;28;20487;-72
2022/06/20 01:19:00;;;;;;;7.43;4.70;;;;;;;;;;5086166;28;20052;-72
2022/06/20 01:21:35;;;;;;;9.40;5.03;;;;;;;;;;5086551;28;20036;-72
2022/06/20 01:24:32;;;;;;;7.28;4.70;;;;;;;;;;5086320;28;20048;-72
2022/06/20 01:27:16;;;;;;;5.47;4.07;;;;;;;;;;5086700;28;20040;-72
2022/06/20 01:29:48;;;;;;;6.78;4.90;;;;;;;;;;5086457;28;20048;-72
2022/06/20 01:32:18;;;;;;;9.68;5.75;;;;;;;;;;5086357;28;20092;-71
2022/06/20 01:34:49;;;;;;;9.85;5.82;;;;;;;;;;5086773;28;20419;-72
2022/06/20 01:37:23;;;;;;;8.70;6.45;;;;;;;;;;5086645;28;20507;-71
2022/06/20 01:40:00;;;;;;;7.85;6.35;;;;;;;;;;5068108;28;20059;-72
2022/06/20 01:42:31;;;;;;;7.90;5.68;;;;;;;;;;5086432;28;20036;-72
2022/06/20 01:45:57;;;;;;;8.60;5.70;;;;;;;;;;5086175;28;20077;-72
2022/06/20 01:48:17;;;;;;;6.78;5.57;;;;;;;;;;5086249;28;20044;-72
2022/06/20 01:50:47;;;;;;;7.85;5.55;;;;;;;;;;5085977;28;20048;-72
2022/06/20 01:53:22;;;;;;;15.30;4.80;;;;;;;;;;5086340;28;20044;-72
2022/06/20 01:55:54;;;;;;;7.80;5.18;;;;;;;;;;5085842;28;20059;-72
2022/06/20 01:58:35;;;;;;;7.90;4.45;;;;;;;;;;5086364;28;20055;-72
2022/06/20 02:01:07;;;;;;;7.00;5.03;;;;;;;;;;5068603;28;20040;-72
2022/06/20 02:03:40;;;;;;;9.20;4.35;;;;;;;;;;5086027;28;20055;-72
2022/06/20 02:06:17;;;;;;;8.13;5.22;;;;;;;;;;5086779;28;20070;-72
2022/06/20 02:08:52;;;;;;;9.30;5.32;;;;;;;;;;5086125;28;20059;-72
2022/06/20 02:11:42;;;;;;;6.88;5.05;;;;;;;;;;5090397;28;20059;-72
2022/06/20 02:14:29;;;;;;;7.13;5.03;;;;;;;;;;5088577;28;20534;-72
2022/06/20 02:17:17;;;;;;;6.90;4.88;;;;;;;;;;5089521;28;20052;-72
2022/06/20 02:19:54;;;;;;;5.75;4.40;;;;;;;;;;5088328;28;20130;-72
2022/06/20 02:22:26;;;;;;;9.13;5.00;;;;;;;;;;5089611;28;20051;-72
2022/06/20 02:25:02;;;;;;;5.20;4.43;;;;;;;;;;5089393;28;20047;-72
2022/06/20 02:27:43;;;;;;;6.88;4.20;;;;;;;;;;5089251;28;20032;-72
2022/06/20 02:30:14;;;;;;;5.30;4.25;;;;;;;;;;5088832;28;20052;-72
2022/06/20 02:33:02;;;;;;;6.35;4.88;;;;;;;;;;5072570;28;20048;-72
2022/06/20 02:35:32;;;;;;;5.93;4.43;;;;;;;;;;5089930;28;20381;-72
2022/06/20 02:38:02;;;;;;;6.47;5.10;;;;;;;;;;5070652;28;20051;-72
2022/06/20 02:40:33;;;;;;;6.13;4.65;;;;;;;;;;5088526;28;20052;-71
2022/06/20 02:43:11;;;;;;;6.05;4.35;;;;;;;;;;5088451;28;20581;-73
2022/06/20 02:45:41;;;;;;;6.75;4.07;;;;;;;;;;5088654;28;20052;-71
2022/06/20 02:48:12;;;;;;;5.03;4.10;;;;;;;;;;5088344;28;20056;-72
2022/06/20 02:50:49;;;;;;;5.10;4.18;;;;;;;;;;5089048;28;20055;-71
2022/06/20 02:53:31;;;;;;;6.78;4.85;;;;;;;;;;5088269;28;20415;-72
2022/06/20 02:56:01;;;;;;;;;;;;;;;;;;5070872;28;20048;-72
2022/06/20 02:58:35;;;;;;;5.50;3.80;;;;;;;;;;5089058;28;19931;-71
2022/06/20 03:01:31;;;;;;;7.05;4.93;;;;;;;;;;5088719;28;20036;-72
2022/06/20 03:04:03;;;;;;;6.75;4.50;;;;;;;;;;5088428;28;20043;-72
2022/06/20 03:06:37;;;;;;;7.07;4.45;;;;;;;;;;5088923;28;20047;-72
2022/06/20 03:09:09;;;;;;;5.65;4.13;;;;;;;;;;5088179;28;20048;-72
2022/06/20 03:11:39;;;;;;;7.55;3.92;;;;;;;;;;5088958;28;20495;-71
2022/06/20 03:14:16;;;;;;;12.63;5.07;;;;;;;;;;5088294;28;20372;-72
2022/06/20 03:16:46;;;;;;;8.98;4.25;;;;;;;;;;5088724;28;20402;-72
2022/06/20 03:19:22;;;;;;;3.97;3.28;;;;;;;;;;5089000;28;20044;-72
2022/06/20 03:21:55;;;;;;;4.72;3.55;;;;;;;;;;5088166;28;20032;-72
2022/06/20 03:24:28;;;;;;;5.95;3.47;;;;;;;;;;5088577;28;20056;-72
2022/06/20 03:27:01;;;;;;;4.32;3.38;;;;;;;;;;5088511;28;20048;-72
2022/06/20 03:29:32;;;;;;;4.10;3.35;;;;;;;;;;5088003;28;20043;-72
2022/06/20 03:32:01;;;;;;;3.72;2.88;;;;;;;;;;5088030;28;20055;-72
2022/06/20 03:34:32;;;;;;;4.75;2.67;;;;;;;;;;5070314;28;20052;-72
2022/06/20 03:37:07;;;;;;;3.88;2.65;;;;;;;;;;5088253;28;20399;-72
2022/06/20 03:39:37;;;;;;;3.33;2.80;;;;;;;;;;5088247;28;20388;-72
2022/06/20 03:42:07;;;;;;;5.53;3.05;;;;;;;;;;5087829;28;20051;-72
2022/06/20 03:44:59;;;;;;;7.07;2.95;;;;;;;;;;5088029;28;20055;-72
2022/06/20 03:47:53;;;;;;;7.03;3.20;;;;;;;;;;5087687;28;20056;-72
2022/06/20 03:50:35;;;;;;;2.92;2.60;;;;;;;;;;5088504;28;20514;-72
2022/06/20 03:53:28;;;;;;;3.50;2.75;;;;;;;;;;5087898;28;20059;-72
2022/06/20 03:56:38;;;;;;;3.78;2.78;;;;;;;;;;5087739;28;20051;-71
2022/06/20 03:59:31;;;;;;;3.63;2.55;;;;;;;;;;5087567;28;20051;-72
2022/06/20 04:02:24;;;;;;;4.05;2.85;;;;;;;;;;5074432;28;20091;-72
2022/06/20 04:05:06;;;;;;;7.20;2.92;;;;;;;;;;5087804;28;20051;-72
2022/06/20 04:08:03;;;;;;;2.85;2.58;;;;;;;;;;5087440;28;20051;-72
2022/06/20 04:10:59;;;;;;;3.45;2.60;;;;;;;;;;5087105;28;20052;-72
2022/06/20 04:13:40;;;;;;;5.72;2.63;;;;;;;;;;5087312;28;20534;-71
2022/06/20 04:16:18;;;;;;;2.60;2.40;;;;;;;;;;5087295;28;20369;-71
2022/06/20 04:19:21;;;;;;;2.67;2.15;;;;;;;;;;5087528;28;20055;-72
2022/06/20 04:22:00;;;;;;;3.17;2.50;;;;;;;;;;5087510;28;20051;-72
2022/06/20 04:24:40;;;;;;;5.22;2.90;;;;;;;;;;5087380;28;20055;-72
2022/06/20 04:27:38;;;;;;;5.63;2.55;;;;;;;;;;5087211;28;20051;-71
2022/06/20 04:30:21;;;;;;;6.93;3.17;;;;;;;;;;5087255;28;20048;-72
2022/06/20 04:33:00;;;;;;;4.88;2.80;;;;;;;;;;5086765;28;20044;-72
2022/06/20 04:35:35;;;;;;;3.28;2.72;;;;;;;;;;5087008;28;20067;-72
2022/06/20 04:38:14;;;;;;;3.35;2.92;;;;;;;;;;5087416;28;20395;-72
2022/06/20 04:40:51;;;;;;;3.20;2.60;;;;;;;;;;5087289;28;20047;-72
2022/06/20 04:43:40;;;;;;;3.40;2.72;;;;;;;;;;5086794;28;20410;-72
2022/06/20 04:46:25;;;;;;;5.72;2.75;;;;;;;;;;5087299;28;20059;-71
2022/06/20 04:48:56;;;;;;;3.72;2.88;;;;;;;;;;5086850;28;20044;-71
2022/06/20 04:51:33;;;;;;;4.73;2.67;;;;;;;;;;5087104;28;20048;-71
2022/06/20 04:54:08;;;;;;;3.63;2.97;;;;;;;;;;5086798;28;20040;-70
2022/06/20 04:56:37;;;;;;;4.72;3.00;;;;;;;;;;5068352;28;20063;-71
2022/06/20 04:59:18;;;;;;;5.45;2.70;;;;;;;;;;5086637;28;20052;-72
2022/06/20 05:01:48;;;;;;;3.45;2.60;;;;;;;;;;5086749;28;20040;-72
2022/06/20 05:04:33;;;;;;;3.33;2.50;;;;;;;;;;5086557;28;20040;-72
2022/06/20 05:07:10;;;;;;;3.58;2.78;;;;;;;;;;5086818;28;20993;-72
2022/06/20 05:09:43;;;;;;;4.22;2.88;;;;;;;;;;5087127;28;20399;-71
2022/06/20 05:12:21;;;;;;;4.20;3.05;;;;;;;;;;5087196;28;20048;-70
2022/06/20 05:15:11;;;;;;;7.43;3.30;;;;;;;;;;5086779;28;20052;-70
2022/06/20 05:17:43;;;;;;;4.40;3.15;;;;;;;;;;5086641;28;20040;-70
2022/06/20 05:20:25;;;;;;;4.45;2.80;;;;;;;;;;5087013;28;20055;-70
2022/06/20 05:23:31;;;;;;;3.90;2.70;;;;;;;;;;5086873;28;20044;-70
2022/06/20 05:26:03;;;;;;;3.78;2.83;;;;;;;;;;5086514;28;20055;-70
2022/06/20 05:28:36;;;;;;;3.28;2.90;;;;;;;;;;5087047;28;20036;-70
2022/06/20 05:31:07;;;;;;;5.90;2.55;;;;;;;;;;5086598;28;20063;-70
2022/06/20 05:33:38;;;;;;;3.83;2.63;;;;;;;;;;5086862;28;20048;-70
2022/06/20 05:36:12;;;;;;;4.07;2.80;;;;;;;;;;5087109;28;20048;-70
2022/06/20 05:38:44;;;;;;;3.67;2.90;;;;;;;;;;5086716;28;20055;-70
2022/06/20 05:41:16;;;;;;;3.38;3.00;;;;;;;;;;5086552;28;20079;-70
2022/06/20 05:43:47;;;;;;;4.55;2.58;;;;;;;;;;5087089;28;20040;-70
2022/06/20 05:46:34;;;;;;;4.30;2.92;;;;;;;;;;5090077;28;20518;-70
2022/06/20 05:49:09;;;;;;;6.70;3.17;;;;;;;;;;5090082;28;20040;-70
2022/06/20 05:51:43;;;;;;;3.67;3.15;;;;;;;;;;5090577;28;20052;-70
2022/06/20 05:54:30;;;;;;;4.25;2.85;;;;;;;;;;5090199;28;20040;-70
2022/06/20 05:57:18;;;;;;;3.50;2.90;;;;;;;;;;5090388;28;20048;-70
2022/06/20 05:59:58;;;;;;;3.63;2.72;;;;;;;;;;5089774;28;20032;-70
2022/06/20 06:02:53;;;;;;;4.50;3.00;;;;;;;;;;5091378;28;20055;-70
2022/06/20 06:05:34;;;;;;;4.45;2.75;;;;;;;;;;5089769;28;20047;-70
2022/06/20 06:08:28;;;;;;;2.93;2.63;;;;;;;;;;5071694;28;20051;-70
2022/06/20 06:12:01;;;;;;;4.00;2.83;;;;;;;;;;5074106;28;20051;-70
2022/06/20 06:14:38;;;;;;;3.17;2.75;;;;;;;;;;5007672;28;20532;-70
2022/06/20 06:17:37;;;;;;;2.70;2.47;;;;;;;;;;5085244;28;20048;-70
2022/06/20 06:20:21;;;;;;;2.88;2.53;;;;;;;;;;5070722;28;20427;-70
2022/06/20 06:22:56;;;;;;;7.00;2.90;;;;;;;;;;5089727;28;20048;-70
2022/06/20 06:25:41;;;;;;;3.13;2.78;;;;;;;;;;5089604;28;20070;-70
2022/06/20 06:28:24;;;;;;;4.40;2.72;;;;;;;;;;5089714;28;20066;-70
2022/06/20 06:31:22;;;;;;;3.40;2.92;;;;;;;;;;5089809;28;20044;-70
2022/06/20 06:34:13;;;;;;;5.75;3.42;;;;;;;;;;5089862;28;20040;-71
2022/06/20 06:37:15;;;;;;;3.92;3.17;;;;;;;;;;5089404;28;20048;-70
2022/06/20 06:39:59;;;;;;;4.30;2.60;;;;;;;;;;5089293;28;20044;-71
2022/06/20 06:42:29;;;;;;;3.03;2.50;;;;;;;;;;5088660;28;20417;-71
2022/06/20 06:44:59;;;;;;;4.97;3.20;;;;;;;;;;5088629;28;20059;-71
2022/06/20 06:47:40;;;;;;;6.57;3.25;;;;;;;;;;5089031;28;20070;-71
2022/06/20 06:50:28;;;;;;;4.68;3.03;;;;;;;;;;5089382;28;20052;-71
2022/06/20 06:53:24;;;;;;;5.45;2.90;;;;;;;;;;5071373;28;20044;-70
2022/06/20 06:56:00;;;;;;;3.60;2.53;;;;;;;;;;5069899;28;20067;-71
2022/06/20 06:58:57;;;;;;;4.75;2.47;;;;;;;;;;5070801;28;20070;-70
2022/06/20 07:01:33;;;;;;;6.18;2.55;;;;;;;;;;5079790;28;20060;-71
2022/06/20 07:04:10;;;;;;;5.93;3.00;;;;;;;;;;5088274;28;20048;-70
2022/06/20 07:06:52;;;;;;;4.18;2.88;;;;;;;;;;5088856;28;20036;-70
2022/06/20 07:09:36;;;;;;;3.97;2.58;;;;;;;;;;5088585;28;20529;-71
2022/06/20 07:12:20;;;;;;;4.72;2.65;;;;;;;;;;5088636;28;20052;-71
2022/06/20 07:15:15;;;;;;;4.80;2.83;;;;;;;;;;5088076;28;20051;-71
2022/06/20 07:17:56;;;;;;;2.95;2.65;;;;;;;;;;5087883;28;20044;-71
2022/06/20 07:20:34;;;;;;;4.97;3.17;;;;;;;;;;5069690;28;20403;-71
2022/06/20 07:23:10;;;;;;;3.15;2.80;;;;;;;;;;5088476;28;20055;-71
2022/06/20 07:25:45;;;;;;;3.13;2.58;;;;;;;;;;5088629;28;20055;-70
2022/06/20 07:28:34;;;;;;;3.60;2.65;;;;;;;;;;5088445;28;20048;-71
2022/06/20 07:31:28;;;;;;;4.40;3.00;;;;;;;;;;5087906;28;20040;-71
2022/06/20 07:34:30;;;;;;;4.00;2.95;;;;;;;;;;5088776;28;20677;-71
2022/06/20 07:37:11;;;;;;;4.97;3.10;;;;;;;;;;5088287;28;20047;-71
2022/06/20 07:39:56;;;;;;;3.85;3.40;;;;;;;;;;5087735;28;20047;-70
2022/06/20 07:42:32;;;;;;;5.80;2.70;;;;;;;;;;5088128;28;20058;-71
2022/06/20 07:45:44;;;;;;;4.45;3.05;;;;;;;;;;5087966;28;20503;-70
2022/06/20 07:48:14;;;;;;;;;;;;;;;;;;5087120;28;20060;-70
2022/06/20 07:50:47;;;;;;;5.43;2.65;;;;;;;;;;5087957;28;19920;-71
2022/06/20 07:53:24;;;;;;;4.50;2.55;;;;;;;;;;5088275;28;20044;-70
2022/06/20 07:56:00;;;;;;;3.78;3.05;;;;;;;;;;5087920;28;20040;-70
2022/06/20 07:58:34;;;;;;;2.85;2.55;;;;;;;;;;5087619;28;20060;-71
2022/06/20 08:01:19;;;;;;;3.03;2.55;;;;;;;;;;5087704;28;20044;-71
2022/06/20 08:04:03;;;;;;;3.78;2.80;;;;;;;;;;5087351;28;20048;-71
2022/06/20 08:06:38;;;;;;;4.40;3.50;;;;;;;;;;5087265;28;20051;-70
2022/06/20 08:09:39;;;;;;;7.72;2.78;;;;;;;;;;5087131;28;20119;-71
2022/06/20 08:12:45;;;;;;;3.00;2.70;;;;;;;;;;5073691;28;20059;-70
2022/06/20 08:15:26;;;;;;;4.72;3.17;;;;;;;;;;5087597;28;20039;-71
2022/06/20 08:17:56;;;;;;;3.70;2.95;;;;;;;;;;5087320;28;20044;-71
2022/06/20 08:20:28;;;;;;;7.95;2.88;;;;;;;;;;5087140;28;20059;-71
2022/06/20 08:23:05;;;;;;;3.55;2.90;;;;;;;;;;5087381;28;20597;-71
2022/06/20 08:25:50;;;;;;;6.07;2.92;;;;;;;;;;5087232;28;20048;-71
2022/06/20 08:28:40;;;;;;;5.43;2.72;;;;;;;;;;5085821;28;20052;-70
2022/06/20 08:31:33;;;;;;;4.55;3.30;;;;;;;;;;5086954;28;20438;-70
2022/06/20 08:34:15;;;;;;;3.50;3.08;;;;;;;;;;5060173;28;20541;-70
2022/06/20 08:37:09;;;;;;;3.25;2.80;;;;;;;;;;5086529;28;20048;-70
2022/06/20 08:39:51;;;;;;;3.15;2.72;;;;;;;;;;5087350;28;20052;-71
2022/06/20 08:42:49;;;;;;;5.07;3.63;;;;;;;;;;5068293;28;20063;-70
2022/06/20 08:45:47;;;;;;;4.38;3.75;;;;;;;;;;5087101;28;20052;-71
2022/06/20 08:48:44;;;;;;;5.55;4.75;;;;;;;;;;5086882;28;20062;-70
2022/06/20 08:51:26;;;;;;;6.75;5.18;;;;;;;;;;5086603;28;20044;-70
2022/06/20 08:54:19;;;;;;;4.63;3.72;;;;;;;;;;5086806;28;20579;-71
2022/06/20 08:56:55;;;;;;;7.35;3.80;;;;;;;;;;5087106;28;20036;-70
2022/06/20 08:59:28;;;;;;;5.68;4.57;;;;;;;;;;5068685;28;20044;-71
2022/06/20 09:02:22;;;;;;;5.85;4.53;;;;;;;;;;5086817;28;20052;-71
2022/06/20 09:05:48;;;;;;;8.40;5.10;;;;;;;;;;5086883;28;20070;-73
2022/06/20 09:08:27;;;;;;;7.47;3.85;;;;;;;;;;5004795;28;20049;-71
2022/06/20 09:11:16;;;;;;;9.48;4.43;;;;;;;;;;5005089;28;20085;-70
2022/06/20 09:13:57;;;;;;;6.22;3.78;;;;;;;;;;5073920;28;20052;-70
2022/06/20 09:16:59;;;;;;;7.30;4.30;;;;;;;;;;5068374;28;20056;-70
2022/06/20 09:19:51;;;;;;;7.80;4.63;;;;;;;;;;5088877;28;20426;-70
2022/06/20 09:22:52;;;;;;;4.85;4.35;;;;;;;;;;5091245;28;20327;-70
2022/06/20 09:25:40;;;;;;;8.73;3.90;;;;;;;;;;5090889;28;20059;-71
2022/06/20 09:28:44;;;;;;;9.02;4.00;;;;;;;;;;5090288;28;20047;-70
2022/06/20 09:31:39;;;;;;;6.82;3.90;;;;;;;;;;5090205;28;20036;-70
2022/06/20 09:34:27;;;;;;;8.98;3.97;;;;;;;;;;5090883;28;20047;-71
2022/06/20 09:37:16;;;;;;;4.30;3.70;;;;;;;;;;5072286;28;20051;-71
2022/06/20 09:40:07;;;;;;;5.43;3.53;;;;;;;;;;5090218;28;20048;-71
2022/06/20 09:42:51;;;;;;;5.03;3.75;;;;;;;;;;5090501;28;20051;-71
2022/06/20 09:45:31;;;;;;;4.97;3.83;;;;;;;;;;5090310;28;20048;-71
2022/06/20 09:48:27;;;;;;;5.63;3.75;;;;;;;;;;5090057;28;20044;-71
2022/06/20 09:51:21;;;;;;;6.95;3.60;;;;;;;;;;5090236;28;20052;-72
2022/06/20 09:54:04;;;;;;;10.68;3.42;;;;;;;;;;5090044;28;20044;-74
2022/06/20 09:56:52;;;;;;;16.90;4.28;;;;;;;;;;5090388;28;20032;-71
2022/06/20 09:59:42;;;;;;;6.07;3.90;;;;;;;;;;5090185;28;20040;-71
2022/06/20 10:02:36;;;;;;;18.60;5.28;;;;;;;;;;5091429;28;20055;-71
2022/06/20 10:05:35;;;;;;;12.15;5.15;;;;;;;;;;5090093;28;20526;-72
2022/06/20 10:08:30;;;;;;;7.80;3.80;;;;;;;;;;5090518;28;20032;-71
2022/06/20 10:11:21;;;;;;;3.97;3.58;;;;;;;;;;5089821;28;20653;-71
2022/06/20 10:14:14;;;;;;;4.75;3.95;;;;;;;;;;5089713;28;20051;-72
2022/06/20 10:16:55;;;;;;;6.15;3.88;;;;;;;;;;5089572;28;20065;-72
2022/06/20 10:19:50;;;;;;;5.97;4.15;;;;;;;;;;5070581;28;20052;-76
2022/06/20 10:22:39;;;;;;;7.53;4.75;;;;;;;;;;5089521;28;20044;-71
2022/06/20 10:25:34;;;;;;;5.78;4.47;;;;;;;;;;5089512;28;20051;-71
2022/06/20 10:28:10;;;;;;;5.85;4.25;;;;;;;;;;5090146;28;20051;-71
2022/06/20 10:31:16;;;;;;;4.75;4.10;;;;;;;;;;5088708;28;20054;-71
2022/06/20 10:34:21;;;;;;;5.10;3.65;;;;;;;;;;5089223;28;20040;-71
2022/06/20 10:37:05;;;;;;;4.20;3.53;;;;;;;;;;5089541;28;20048;-71
2022/06/20 10:39:49;;;;;;;9.32;4.05;;;;;;;;;;5070426;28;20044;-71
2022/06/20 10:42:30;;;;;;;9.98;4.47;;;;;;;;;;5088679;28;20046;-71
2022/06/20 10:45:22;;;;;;;5.97;4.10;;;;;;;;;;5089368;28;20036;-71
2022/06/20 10:48:14;;;;;;;5.30;3.65;;;;;;;;;;5087177;28;20538;-71
2022/06/20 10:50:43;;;;;;;;;;;;;;;;;;5089700;28;20040;-71
2022/06/20 10:53:19;;;;;;;9.90;7.40;;;;;;;;;;5089135;28;19931;-72
2022/06/20 10:56:17;;;;;;;7.07;4.35;;;;;;;;;;5071031;28;20534;-71
2022/06/20 10:59:25;;;;;;;6.88;3.95;;;;;;;;;;5088784;28;20071;-72
2022/06/20 11:02:06;;;;;;;8.00;3.42;;;;;;;;;;5089267;28;20043;-72
2022/06/20 11:05:05;;;;;;;8.70;3.60;;;;;;;;;;5088686;28;20122;-71
2022/06/20 11:07:43;;;;;;;4.68;3.20;;;;;;;;;;5070937;28;20048;-71
2022/06/20 11:10:36;;;;;;;7.05;3.30;;;;;;;;;;5088547;28;20048;-71
2022/06/20 11:13:21;;;;;;;7.35;3.42;;;;;;;;;;5088867;28;20048;-72
2022/06/20 11:16:12;;;;;;;9.00;3.60;;;;;;;;;;5088427;28;20051;-70
2022/06/20 11:19:01;;;;;;;6.60;3.95;;;;;;;;;;5088836;28;20511;-70
2022/06/20 11:21:46;;;;;;;13.73;4.32;;;;;;;;;;5088225;28;20499;-72
2022/06/20 11:24:24;;;;;;;9.93;3.60;;;;;;;;;;5088216;28;20040;-71
2022/06/20 11:27:16;;;;;;;7.97;4.05;;;;;;;;;;5088561;28;20414;-71
2022/06/20 11:30:04;;;;;;;12.18;5.20;;;;;;;;;;5087650;28;20040;-72
2022/06/20 11:32:55;;;;;;;10.55;6.40;;;;;;;;;;5087173;28;20040;-71
2022/06/20 11:36:01;;;;;;;32.70;5.35;;;;;;;;;;5087819;28;20507;-73
2022/06/20 11:39:12;;;;;;;13.65;3.55;;;;;;;;;;5087987;28;20051;-72
2022/06/20 11:41:52;;;;;;;4.03;2.95;;;;;;;;;;5025332;28;20045;-76
2022/06/20 11:44:37;;;;;;;9.52;4.88;;;;;;;;;;5081717;28;20063;-71
2022/06/20 11:47:35;;;;;;;6.82;3.75;;;;;;;;;;5069546;28;20051;-72
2022/06/20 11:50:08;;;;;;;22.13;5.07;;;;;;;;;;5088081;28;20074;-72
2022/06/20 11:53:08;;;;;;;10.75;2.90;;;;;;;;;;5087259;28;20044;-70
2022/06/20 11:55:46;;;;;;;6.85;3.10;;;;;;;;;;5087383;28;20056;-70
2022/06/20 11:58:37;;;;;;;15.65;3.55;;;;;;;;;;5087631;28;20398;-70
2022/06/20 12:01:18;;;;;;;;;;;;;;;;;;5088933;28;20052;-72
2022/06/20 12:03:57;;;;;;;8.50;3.60;;;;;;;;;;5087641;28;19930;-76
2022/06/20 12:06:58;;;;;;;32.70;4.10;;;;;;;;;;5087818;28;20052;-71
2022/06/20 12:09:37;;;;;;;9.40;3.65;;;;;;;;;;5087303;28;20050;-71
2022/06/20 12:12:10;;;;;;;7.00;3.80;;;;;;;;;;5088283;28;20048;-71
2022/06/20 12:15:16;;;;;;;10.27;3.28;;;;;;;;;;5087787;28;20398;-71
2022/06/20 12:18:05;;;;;;;4.97;3.10;;;;;;;;;;5087431;28;20055;-71
2022/06/20 12:23:58;;;;;;;5.32;3.35;;;;;;;;;;5087609;28;20056;-71
2022/06/20 12:26:35;;;;;;;27.38;6.05;;;;;;;;;;5072715;28;20052;-71
2022/06/20 12:29:15;;;;;;;12.18;3.35;;;;;;;;;;5087324;28;20047;-71
2022/06/20 12:31:53;;;;;;;15.80;3.70;;;;;;;;;;5087101;28;20048;-71
2022/06/20 12:34:39;;;;;;;9.90;3.63;;;;;;;;;;5087425;28;20491;-73
2022/06/20 12:37:26;;;;;;;6.25;3.33;;;;;;;;;;5087516;28;20054;-71
2022/06/20 12:40:06;;;;;;;5.60;3.70;;;;;;;;;;5087461;28;20055;-72
2022/06/20 12:42:36;;;;;;;6.50;3.35;;;;;;;;;;5086764;28;20051;-71
2022/06/20 12:45:08;;;;;;;11.25;3.78;;;;;;;;;;5086915;28;20055;-72
2022/06/20 12:47:44;;;;;;;4.70;3.17;;;;;;;;;;5087185;28;20052;-72
2022/06/20 12:50:24;;;;;;;5.68;2.92;;;;;;;;;;5086841;28;20538;-71
2022/06/20 12:52:58;;;;;;;15.10;3.73;;;;;;;;;;5086480;28;20051;-71
2022/06/20 12:56:07;;;;;;;7.68;3.28;;;;;;;;;;5086502;28;20071;-71
2022/06/20 12:59:00;;;;;;;3.30;3.00;;;;;;;;;;5015527;28;20052;-71
2022/06/20 13:02:06;;;;;;;9.30;3.20;;;;;;;;;;5086764;28;20495;-73
2022/06/20 13:04:56;;;;;;;4.72;3.03;;;;;;;;;;5087500;28;20687;-71
2022/06/20 13:07:39;;;;;;;;;;;;;;;;;;5087237;28;20589;-72
2022/06/20 13:10:14;;;;;;;;;;;;;;;;;;5086626;28;19931;-71
2022/06/20 13:13:02;;;;;;;16.17;3.47;;;;;;;;;;5086943;28;19924;-71
2022/06/20 13:15:56;;;;;;;4.07;2.97;;;;;;;;;;5086473;28;20050;-73
2022/06/20 13:18:45;;;;;;;3.55;2.92;;;;;;;;;;5086450;28;20526;-72
2022/06/20 13:21:22;;;;;;;28.85;5.43;;;;;;;;;;5086473;28;20534;-72
2022/06/20 13:24:44;;;;;;;8.95;3.80;;;;;;;;;;5086519;28;20044;-71
2022/06/20 13:27:43;;;;;;;5.60;2.33;;;;;;;;;;5054290;28;20060;-72
2022/06/20 13:30:45;;;;;;;11.45;3.13;;;;;;;;;;5087268;28;20040;-72
2022/06/20 13:33:51;;;;;;;3.58;2.70;;;;;;;;;;5053223;28;20052;-71
2022/06/20 13:36:28;;;;;;;3.38;2.58;;;;;;;;;;5085020;28;20052;-71
2022/06/20 13:39:16;;;;;;;5.80;3.55;;;;;;;;;;5086611;28;20048;-74
2022/06/20 13:42:11;;;;;;;7.70;3.20;;;;;;;;;;5086481;28;20518;-71
2022/06/20 13:45:06;;;;;;;4.95;2.70;;;;;;;;;;5067982;28;20052;-71
2022/06/20 13:47:47;;;;;;;7.15;3.78;;;;;;;;;;5086371;28;20056;-72
2022/06/20 13:50:23;;;;;;;8.13;3.13;;;;;;;;;;5068698;28;20102;-71
2022/06/20 13:53:26;;;;;;;11.07;3.47;;;;;;;;;;5086362;28;20036;-72
2022/06/20 13:56:22;;;;;;;3.80;2.63;;;;;;;;;;5081320;28;20078;-71
2022/06/20 13:59:15;;;;;;;6.15;2.70;;;;;;;;;;5086536;28;20047;-71
2022/06/20 14:02:22;;;;;;;5.95;2.80;;;;;;;;;;5085904;28;20043;-71
2022/06/20 14:04:53;;;;;;;3.35;2.40;;;;;;;;;;5086297;28;20044;-71
2022/06/20 14:07:30;;;;;;;3.63;2.30;;;;;;;;;;5089690;28;20043;-71
2022/06/20 14:10:01;;;;;;;8.85;2.70;;;;;;;;;;5090039;28;20063;-71
2022/06/20 14:12:36;;;;;;;9.18;2.72;;;;;;;;;;5089288;28;20044;-72
2022/06/20 14:15:35;;;;;;;6.18;2.50;;;;;;;;;;5090067;28;20047;-71
2022/06/20 14:18:18;;;;;;;6.80;2.10;;;;;;;;;;5089548;28;20040;-72
2022/06/20 14:21:06;;;;;;;3.13;2.40;;;;;;;;;;5089610;28;20051;-72
2022/06/20 14:23:39;;;;;;;5.00;2.42;;;;;;;;;;5089593;28;20055;-72
2022/06/20 14:26:27;;;;;;;4.85;2.70;;;;;;;;;;5088940;28;20058;-72
2022/06/20 14:28:59;;;;;;;6.18;2.72;;;;;;;;;;5090139;28;20055;-72
2022/06/20 14:31:33;;;;;;;7.47;3.10;;;;;;;;;;5089419;28;20513;-72
2022/06/20 14:34:27;;;;;;;31.52;5.30;;;;;;;;;;5089492;28;20499;-72
2022/06/20 14:37:17;;;;;;;10.85;2.65;;;;;;;;;;5071677;28;20055;-71
2022/06/20 14:39:53;;;;;;;12.88;3.70;;;;;;;;;;5089480;28;20040;-71
2022/06/20 14:42:39;;;;;;;3.15;2.75;;;;;;;;;;5089486;28;20040;-73
2022/06/20 14:45:34;;;;;;;4.18;2.40;;;;;;;;;;5089240;28;20040;-71
2022/06/20 14:48:40;;;;;;;5.97;2.53;;;;;;;;;;5070469;28;20051;-71
2022/06/20 14:51:22;;;;;;;3.40;2.58;;;;;;;;;;5087489;28;20495;-72
2022/06/20 14:54:34;;;;;;;4.07;2.17;;;;;;;;;;5088843;28;20063;-71
2022/06/20 14:57:16;;;;;;;15.15;3.90;;;;;;;;;;5076516;28;20601;-71
2022/06/20 15:00:18;;;;;;;5.15;2.67;;;;;;;;;;5089236;28;20058;-72
2022/06/20 15:02:58;;;;;;;15.77;5.30;;;;;;;;;;5075178;28;20066;-72
2022/06/20 15:05:31;;;;;;;10.88;3.03;;;;;;;;;;5093785;28;20048;-72
2022/06/20 15:08:21;;;;;;;4.13;2.42;;;;;;;;;;5089272;28;20050;-73
2022/06/20 15:11:06;;;;;;;3.90;2.67;;;;;;;;;;5089203;28;20063;-73
2022/06/20 15:13:37;;;;;;;2.90;2.35;;;;;;;;;;5089588;28;20165;-72
2022/06/20 15:16:35;;;;;;;13.18;3.10;;;;;;;;;;5087668;28;20063;-72
2022/06/20 15:19:11;;;;;;;7.65;2.42;;;;;;;;;;5088177;28;20125;-72
2022/06/20 15:21:53;;;;;;;4.22;3.03;;;;;;;;;;5087986;28;20048;-71
2022/06/20 15:24:41;;;;;;;5.68;2.70;;;;;;;;;;5088714;28;20044;-73
2022/06/20 15:27:24;;;;;;;3.90;2.47;;;;;;;;;;5087774;28;20060;-72
2022/06/20 15:30:34;;;;;;;5.35;2.00;;;;;;;;;;5088783;28;20044;-73
2022/06/20 15:33:22;;;;;;;21.20;7.18;;;;;;;;;;5005492;28;20068;-73
2022/06/20 15:36:15;;;;;;;5.10;2.03;;;;;;;;;;5084757;28;20059;-72
2022/06/20 15:39:08;;;;;;;3.42;2.75;;;;;;;;;;5088582;28;20040;-73
2022/06/20 15:42:26;;;;;;;2.78;2.17;;;;;;;;;;5088442;28;20055;-72
2022/06/20 15:45:12;;;;;;;12.52;3.58;;;;;;;;;;5088203;28;20048;-72
2022/06/20 15:47:49;;;;;;;12.07;2.83;;;;;;;;;;5070194;28;20067;-73
2022/06/20 15:50:53;;;;;;;6.35;2.67;;;;;;;;;;5087743;28;20039;-74
2022/06/20 15:53:29;;;;;;;3.03;2.17;;;;;;;;;;5075796;28;20056;-73
2022/06/20 15:56:53;;;;;;;5.03;2.35;;;;;;;;;;5087490;28;20054;-73
2022/06/20 15:59:36;;;;;;;3.70;2.17;;;;;;;;;;5068304;28;20388;-74
2022/06/20 16:02:24;;;;;;;3.55;2.72;;;;;;;;;;5087076;28;20507;-73
2022/06/20 16:05:10;;;;;;;2.95;2.40;;;;;;;;;;5087944;28;20055;-73
2022/06/20 16:08:14;;;;;;;6.97;2.47;;;;;;;;;;5087619;28;20379;-72
2022/06/20 16:10:58;;;;;;;3.30;2.65;;;;;;;;;;5068871;28;20044;-73
2022/06/20 16:13:33;;;;;;;5.72;2.90;;;;;;;;;;5087408;28;20047;-72
2022/06/20 16:16:12;;;;;;;19.70;3.33;;;;;;;;;;5087459;28;20070;-73
2022/06/20 16:18:51;;;;;;;7.60;2.65;;;;;;;;;;5087451;28;20052;-73
2022/06/20 16:21:28;;;;;;;3.80;2.55;;;;;;;;;;5087029;28;20056;-73
2022/06/20 16:24:06;;;;;;;3.42;2.70;;;;;;;;;;5087401;28;20417;-75
2022/06/20 16:26:49;;;;;;;8.88;2.78;;;;;;;;;;5087569;28;20411;-73